Time;durP1;ratioP1;P1;durP2;ratioP2;P2;SDS_P1;SDS_P2;PMS_P1;PMS_P2;Temp;Humidity;BMP_temperature;BMP_pressure;BME280_temperature;BME280_humidity;BME280_pressure;Samples;Min_cycle;Max_cycle;Signal;HPM_P1;HPM_P2
2021/09/05 00:01:05;;;;;;;7.97;5.82;;;;;;;13.09;97.38;98906.06;5050899;28;20025;-72
2021/09/05 00:03:30;;;;;;;8.30;5.53;;;;;;;13.01;98.84;98892.75;5051699;28;20561;-73
2021/09/05 00:05:56;;;;;;;9.70;5.82;;;;;;;13.06;99.51;98898.34;5052478;28;20037;-73
2021/09/05 00:08:21;;;;;;;10.40;6.22;;;;;;;13.13;99.37;98903.75;5052028;28;20033;-74
2021/09/05 00:10:46;;;;;;;10.73;6.40;;;;;;;13.07;100.00;98901.91;5034280;28;20033;-73
2021/09/05 00:13:12;;;;;;;9.00;6.22;;;;;;;12.91;100.00;98889.66;5051349;28;20071;-74
2021/09/05 00:15:37;;;;;;;10.75;6.25;;;;;;;12.81;100.00;98879.28;5051144;28;20037;-74
2021/09/05 00:18:03;;;;;;;9.10;5.93;;;;;;;12.92;100.00;98897.59;5051578;28;20041;-75
2021/09/05 00:20:29;;;;;;;10.13;5.97;;;;;;;12.88;100.00;98904.50;5051285;28;20021;-75
2021/09/05 00:22:54;;;;;;;8.60;5.97;;;;;;;12.83;100.00;98879.03;5031612;28;20464;-74
2021/09/05 00:25:19;;;;;;;9.68;7.03;;;;;;;12.72;100.00;98875.13;5050413;28;20067;-75
2021/09/05 00:27:45;;;;;;;10.57;6.30;;;;;;;12.78;100.00;98887.84;5032014;28;20025;-74
2021/09/05 00:30:10;;;;;;;10.68;6.80;;;;;;;12.69;100.00;98881.00;5050672;28;20360;-74
2021/09/05 00:32:35;;;;;;;8.70;5.68;;;;;;;12.55;100.00;98877.50;5049875;28;20060;-73
2021/09/05 00:35:01;;;;;;;12.63;7.38;;;;;;;12.63;100.00;98879.97;5051346;28;20429;-71
2021/09/05 00:37:26;;;;;;;8.65;6.25;;;;;;;12.59;100.00;98862.44;5052117;28;20530;-75
2021/09/05 00:39:51;;;;;;;11.98;6.72;;;;;;;12.69;100.00;98881.81;5036068;28;20052;-77
2021/09/05 00:42:25;;;;;;;11.27;6.30;;;;;;;12.65;99.92;98877.03;5054024;28;20028;-77
2021/09/05 00:44:52;;;;;;;9.52;6.32;;;;;;;12.62;99.81;98885.59;5036315;28;20027;-77
2021/09/05 00:47:17;;;;;;;7.50;5.65;;;;;;;12.54;99.62;98875.81;5054566;28;20036;-77
2021/09/05 00:49:43;;;;;;;11.18;6.55;;;;;;;12.49;100.00;98867.50;5038861;28;20387;-80
2021/09/05 00:52:09;;;;;;;8.57;6.22;;;;;;;12.78;98.85;98887.84;5042049;28;20023;-79
2021/09/05 00:54:34;;;;;;;11.52;6.55;;;;;;;12.50;98.67;98844.75;5060710;28;20039;-80
2021/09/05 00:56:59;;;;;;;9.77;5.90;;;;;;;12.65;98.55;98871.59;5042741;28;20073;-80
2021/09/05 00:59:25;;;;;;;9.63;6.20;;;;;;;12.62;98.08;98872.84;5043297;28;20115;-79
2021/09/05 01:01:50;;;;;;;8.65;6.35;;;;;;;12.54;98.55;98872.28;5039701;28;20017;-77
2021/09/05 01:04:16;;;;;;;9.63;6.53;;;;;;;12.18;99.67;98832.94;5057354;28;20035;-79
2021/09/05 01:06:41;;;;;;;9.15;6.72;;;;;;;12.31;100.00;98846.47;5039206;28;20056;-77
2021/09/05 01:09:10;;;;;;;14.30;6.68;;;;;;;12.57;100.00;98888.13;5035724;28;20044;-77
2021/09/05 01:11:36;;;;;;;10.68;6.05;;;;;;;12.46;100.00;98887.75;5040143;28;20382;-79
2021/09/05 01:14:04;;;;;;;12.40;6.07;;;;;;;12.50;100.00;98901.72;5058628;28;20120;-79
2021/09/05 01:16:35;;;;;;;11.32;6.28;;;;;;;12.43;100.00;98901.75;5055055;28;20032;-79
2021/09/05 01:19:13;;;;;;;9.77;6.38;;;;;;;12.40;100.00;98893.19;5030538;28;20049;-77
2021/09/05 01:21:40;;;;;;;9.00;6.50;;;;;;;12.42;100.00;98910.94;5035843;28;20112;-77
2021/09/05 01:24:06;;;;;;;9.57;6.05;;;;;;;12.33;100.00;98911.38;5053416;28;20048;-79
2021/09/05 01:26:34;;;;;;;12.48;6.70;;;;;;;12.01;100.00;98865.94;5055521;28;20033;-79
2021/09/05 01:29:00;;;;;;;9.50;6.53;;;;;;;11.82;100.00;98850.53;5040325;28;20024;-77
2021/09/05 01:31:39;;;;;;;9.50;6.22;;;;;;;12.00;99.85;98871.59;5035012;28;20020;-78
2021/09/05 01:34:05;;;;;;;8.82;6.20;;;;;;;12.05;99.12;98880.75;5015812;28;20040;-77
2021/09/05 01:36:31;;;;;;;9.80;6.50;;;;;;;11.97;99.61;98878.28;5032238;28;20033;-78
2021/09/05 01:38:56;;;;;;;11.20;6.60;;;;;;;12.13;100.00;98908.69;5017527;28;20025;-77
2021/09/05 01:41:21;;;;;;;12.57;7.22;;;;;;;11.93;100.00;98892.44;5035660;28;20106;-77
2021/09/05 01:43:47;;;;;;;9.23;5.93;;;;;;;11.76;100.00;98871.16;5034905;28;20517;-78
2021/09/05 01:46:12;;;;;;;10.80;6.72;;;;;;;11.99;100.00;98913.28;5041341;28;20029;-80
2021/09/05 01:48:37;;;;;;;11.75;7.05;;;;;;;11.93;100.00;98912.25;5041695;28;20055;-80
2021/09/05 01:51:03;;;;;;;10.90;6.43;;;;;;;11.81;100.00;98913.88;5041841;28;20017;-80
2021/09/05 01:53:28;;;;;;;10.68;6.68;;;;;;;11.57;100.00;98872.81;5040687;28;20028;-79
2021/09/05 01:55:53;;;;;;;9.68;6.45;;;;;;;11.68;100.00;98901.16;5036136;28;20025;-78
2021/09/05 01:58:19;;;;;;;12.15;6.47;;;;;;;11.68;100.00;98894.91;5040755;28;20048;-81
2021/09/05 02:00:44;;;;;;;8.70;6.20;;;;;;;11.61;100.00;98873.25;5041547;28;20059;-80
2021/09/05 02:03:10;;;;;;;9.15;6.03;;;;;;;11.74;100.00;98911.19;5040597;28;20119;-80
2021/09/05 02:05:35;;;;;;;12.38;6.43;;;;;;;11.74;100.00;98913.91;5040833;28;20534;-78
2021/09/05 02:08:01;;;;;;;9.18;6.50;;;;;;;11.92;100.00;98929.59;5056568;28;20544;-79
2021/09/05 02:10:26;;;;;;;8.20;6.13;;;;;;;11.79;100.00;98924.13;5041330;28;20082;-80
2021/09/05 02:12:51;;;;;;;10.20;6.63;;;;;;;11.66;100.00;98924.94;5036254;28;20127;-77
2021/09/05 02:15:17;;;;;;;9.57;6.13;;;;;;;11.44;100.00;98899.91;5034918;28;20486;-77
2021/09/05 02:17:42;;;;;;;11.48;6.45;;;;;;;11.55;100.00;98922.84;5032136;28;20518;-77
2021/09/05 02:20:08;;;;;;;15.38;6.25;;;;;;;11.44;100.00;98921.56;5038476;28;20025;-80
2021/09/05 02:22:34;;;;;;;10.65;6.57;;;;;;;11.36;100.00;98919.06;5039462;28;20387;-79
2021/09/05 02:24:59;;;;;;;11.50;6.22;;;;;;;11.34;100.00;98919.28;5039976;28;20032;-79
2021/09/05 02:27:25;;;;;;;8.95;6.15;;;;;;;11.59;100.00;98927.63;5040211;28;20536;-80
2021/09/05 02:29:51;;;;;;;10.15;5.47;;;;;;;11.55;100.00;98929.13;5039372;28;20707;-80
2021/09/05 02:32:16;;;;;;;9.63;5.80;;;;;;;11.38;100.00;98914.28;5037068;28;20059;-78
2021/09/05 02:34:41;;;;;;;11.63;6.47;;;;;;;11.55;100.00;98917.41;5050900;28;20035;-78
2021/09/05 02:37:09;;;;;;;9.95;5.90;;;;;;;11.38;100.00;98911.56;5043489;28;20041;-79
2021/09/05 02:39:34;;;;;;;8.25;5.38;;;;;;;11.29;99.95;98912.78;5057132;28;20100;-79
2021/09/05 02:42:00;;;;;;;11.13;6.18;;;;;;;11.48;99.92;98949.94;5040764;28;20049;-78
2021/09/05 02:44:25;;;;;;;10.57;6.05;;;;;;;11.48;100.00;98958.06;5041225;28;20116;-78
2021/09/05 02:46:50;;;;;;;8.32;5.82;;;;;;;11.39;100.00;98943.03;5038769;28;20025;-78
2021/09/05 02:49:15;;;;;;;8.63;5.30;;;;;;;11.16;100.00;98919.88;5056556;28;20565;-78
2021/09/05 02:51:42;;;;;;;8.35;5.50;;;;;;;10.72;100.00;98863.50;5036936;28;20116;-78
2021/09/05 02:54:08;;;;;;;11.27;5.75;;;;;;;11.03;100.00;98919.81;5037734;28;20157;-79
2021/09/05 02:56:33;;;;;;;11.55;6.15;;;;;;;11.36;100.00;98935.31;5041188;28;20052;-77
2021/09/05 02:58:58;;;;;;;9.43;5.45;;;;;;;11.46;100.00;98943.88;5056361;28;20021;-77
2021/09/05 03:01:24;;;;;;;10.35;6.20;;;;;;;11.52;100.00;98939.50;5056750;28;20029;-77
2021/09/05 03:03:49;;;;;;;11.70;5.82;;;;;;;11.48;100.00;98943.69;5039149;28;20036;-77
2021/09/05 03:06:14;;;;;;;8.15;5.93;;;;;;;11.20;100.00;98904.03;5058680;28;20025;-80
2021/09/05 03:08:39;;;;;;;10.40;5.47;;;;;;;11.27;100.00;98914.91;5040115;28;20493;-77
2021/09/05 03:11:05;;;;;;;10.48;6.20;;;;;;;11.46;100.00;98951.19;5040336;28;20047;-77
2021/09/05 03:13:30;;;;;;;11.38;6.47;;;;;;;11.33;100.00;98919.47;5039567;28;20074;-79
2021/09/05 03:15:55;;;;;;;11.13;6.50;;;;;;;11.34;100.00;98923.84;5039402;28;20041;-78
2021/09/05 03:18:21;;;;;;;9.30;6.30;;;;;;;11.13;100.00;98893.19;5037696;28;20067;-78
2021/09/05 03:20:46;;;;;;;13.23;6.75;;;;;;;11.10;100.00;98899.00;5037964;28;20078;-78
2021/09/05 03:23:11;;;;;;;15.27;6.95;;;;;;;11.32;100.00;98923.25;5037293;28;20021;-78
2021/09/05 03:25:37;;;;;;;9.85;5.90;;;;;;;11.31;100.00;98932.38;5037699;28;20032;-78
2021/09/05 03:28:02;;;;;;;9.68;5.72;;;;;;;11.39;100.00;98948.44;5037831;28;20029;-77
2021/09/05 03:30:27;;;;;;;9.27;5.35;;;;;;;11.21;100.00;98937.34;5054486;28;20021;-79
2021/09/05 03:32:53;;;;;;;7.90;5.25;;;;;;;11.07;100.00;98933.78;5030174;28;20025;-79
2021/09/05 03:35:19;;;;;;;11.40;5.40;;;;;;;11.18;100.00;98969.22;5037719;28;20021;-79
2021/09/05 03:37:44;;;;;;;11.50;6.70;;;;;;;11.12;100.00;98958.38;5037848;28;20043;-79
2021/09/05 03:40:10;;;;;;;12.38;6.00;;;;;;;11.08;100.00;98966.09;5037596;28;20056;-78
2021/09/05 03:42:35;;;;;;;9.05;6.05;;;;;;;11.07;100.00;98947.31;5036865;28;20023;-77
2021/09/05 03:45:01;;;;;;;10.23;6.25;;;;;;;10.99;100.00;98934.78;5037761;28;20516;-77
2021/09/05 03:47:28;;;;;;;9.10;6.38;;;;;;;11.07;100.00;98952.72;5039149;28;20441;-80
2021/09/05 03:49:53;;;;;;;11.15;6.97;;;;;;;11.09;100.00;98953.38;5040648;28;20021;-79
2021/09/05 03:52:19;;;;;;;10.88;7.07;;;;;;;10.91;100.00;98945.81;5039693;28;20483;-79
2021/09/05 03:54:44;;;;;;;11.13;7.90;;;;;;;11.10;100.00;98977.53;5039889;28;20530;-79
2021/09/05 03:57:09;;;;;;;7.93;5.88;;;;;;;11.07;100.00;98969.81;5040116;28;20028;-79
2021/09/05 03:59:35;;;;;;;10.88;5.95;;;;;;;10.86;100.00;98945.56;5037849;28;20090;-78
2021/09/05 04:02:00;;;;;;;10.65;5.88;;;;;;;11.00;100.00;98976.22;5037271;28;20024;-78
2021/09/05 04:04:25;;;;;;;10.13;5.47;;;;;;;10.93;100.00;98976.22;5037261;28;20028;-79
2021/09/05 04:07:00;;;;;;;9.65;4.68;;;;;;;10.80;100.00;98968.88;5037597;28;20117;-78
2021/09/05 04:12:14;;;;;;;9.63;5.45;;;;;;;10.65;100.00;98966.28;5056246;28;20762;-80
2021/09/05 04:14:39;;;;;;;8.85;5.72;;;;;;;10.66;100.00;98970.69;5038241;28;20029;-78
2021/09/05 04:17:05;;;;;;;9.20;5.82;;;;;;;10.60;100.00;98960.63;5054951;28;20029;-78
2021/09/05 04:19:30;;;;;;;8.45;5.90;;;;;;;10.73;100.00;98981.53;5037353;28;20036;-79
2021/09/05 04:21:56;;;;;;;9.10;5.22;;;;;;;10.40;100.00;98941.59;5037199;28;20054;-78
2021/09/05 04:24:21;;;;;;;9.48;5.97;;;;;;;10.56;100.00;98967.50;5037505;28;20495;-79
2021/09/05 04:26:47;;;;;;;10.30;6.22;;;;;;;10.61;100.00;98964.16;5036575;28;20577;-79
2021/09/05 04:29:12;;;;;;;8.88;6.18;;;;;;;10.52;100.00;98947.28;5036847;28;20048;-79
2021/09/05 04:31:38;;;;;;;9.02;5.75;;;;;;;10.62;100.00;98971.28;5054979;28;20107;-80
2021/09/05 04:34:03;;;;;;;11.18;6.35;;;;;;;10.11;100.00;98896.66;5036049;28;20037;-79
2021/09/05 04:36:28;;;;;;;8.90;5.97;;;;;;;10.53;100.00;98976.84;5036926;28;20025;-80
2021/09/05 04:38:54;;;;;;;10.77;7.25;;;;;;;10.45;100.00;98965.31;5036477;28;20013;-79
2021/09/05 04:41:19;;;;;;;10.98;7.15;;;;;;;10.45;100.00;98965.31;5036418;28;20028;-80
2021/09/05 04:43:44;;;;;;;11.25;7.75;;;;;;;10.67;100.00;98985.88;5054295;28;20435;-78
2021/09/05 04:46:09;;;;;;;14.00;7.88;;;;;;;10.58;100.00;98969.97;5054419;28;20051;-79
2021/09/05 04:48:35;;;;;;;10.68;7.05;;;;;;;10.62;100.00;98972.09;5035575;28;20013;-78
2021/09/05 04:51:00;;;;;;;11.25;7.78;;;;;;;10.64;100.00;98964.63;5035998;28;20074;-78
2021/09/05 04:53:25;;;;;;;11.02;7.63;;;;;;;10.81;100.00;98994.88;5053304;28;20367;-78
2021/09/05 04:55:51;;;;;;;11.45;7.35;;;;;;;10.59;100.00;98956.28;5041278;28;20513;-79
2021/09/05 04:58:16;;;;;;;12.27;7.45;;;;;;;10.95;100.00;99002.06;5041746;28;20029;-80
2021/09/05 05:00:41;;;;;;;12.38;8.13;;;;;;;10.69;100.00;98970.28;5058567;28;20052;-78
2021/09/05 05:03:07;;;;;;;12.55;7.75;;;;;;;10.85;100.00;98998.06;5035393;28;20495;-78
2021/09/05 05:05:32;;;;;;;11.18;7.38;;;;;;;10.91;100.00;99003.47;5052241;28;20589;-72
2021/09/05 05:07:57;;;;;;;9.93;7.00;;;;;;;11.01;100.00;99005.81;5045518;28;20037;-77
2021/09/05 05:10:23;;;;;;;10.25;6.60;;;;;;;11.17;100.00;99004.63;5052355;28;20020;-75
2021/09/05 05:12:48;;;;;;;10.55;6.80;;;;;;;11.23;100.00;99011.94;5047402;28;20398;-76
2021/09/05 05:15:14;;;;;;;11.07;6.43;;;;;;;11.34;100.00;99016.81;5046266;28;20401;-78
2021/09/05 05:17:39;;;;;;;8.38;6.07;;;;;;;11.43;100.00;99016.63;5033318;28;20039;-76
2021/09/05 05:20:05;;;;;;;10.40;6.55;;;;;;;11.45;100.00;99009.97;5020458;28;20108;-78
2021/09/05 05:22:31;;;;;;;6.63;5.35;;;;;;;11.60;97.79;99039.56;5045947;28;20024;-76
2021/09/05 05:24:56;;;;;;;9.63;5.07;;;;;;;11.47;97.17;99007.03;5022303;28;20025;-76
2021/09/05 05:27:21;;;;;;;11.07;5.30;;;;;;;11.75;96.38;99042.13;5031730;28;20025;-75
2021/09/05 05:29:46;;;;;;;9.38;5.47;;;;;;;11.75;94.83;99009.59;5050826;28;20029;-74
2021/09/05 05:32:12;;;;;;;11.32;5.97;;;;;;;12.33;93.23;99034.28;5052546;28;20426;-71
2021/09/05 05:34:37;;;;;;;10.57;6.00;;;;;;;13.51;87.00;99025.25;5052387;28;20036;-77
2021/09/05 05:37:03;;;;;;;8.43;4.95;;;;;;;15.34;76.88;99035.00;5054307;28;20033;-77
2021/09/05 05:39:29;;;;;;;7.63;4.10;;;;;;;16.85;70.21;99029.38;5052839;28;20498;-74
2021/09/05 05:41:55;;;;;;;9.05;4.80;;;;;;;17.65;65.50;99020.38;5034412;28;20074;-74
2021/09/05 05:44:20;;;;;;;9.82;4.40;;;;;;;18.53;63.35;99034.56;5052640;28;20025;-73
2021/09/05 05:46:45;;;;;;;8.68;4.22;;;;;;;19.14;60.83;99031.91;5048617;28;20012;-74
2021/09/05 05:49:10;;;;;;;9.50;4.28;;;;;;;19.91;57.78;99019.97;5046750;28;20036;-75
2021/09/05 05:51:37;;;;;;;7.57;4.93;;;;;;;20.20;56.14;99021.59;5016832;28;20055;-74
2021/09/05 05:54:02;;;;;;;10.85;4.93;;;;;;;20.85;54.04;99028.72;5052234;28;20137;-74
2021/09/05 05:56:27;;;;;;;10.98;4.80;;;;;;;21.19;53.03;99015.44;5044781;28;20053;-73
2021/09/05 05:58:53;;;;;;;7.97;4.53;;;;;;;21.74;52.20;99031.66;5039063;28;20101;-74
2021/09/05 06:01:18;;;;;;;8.05;4.53;;;;;;;21.57;52.32;99016.19;5046086;28;20028;-76
2021/09/05 06:03:43;;;;;;;6.55;4.30;;;;;;;21.94;51.31;99034.47;5050757;28;20076;-74
2021/09/05 06:06:09;;;;;;;8.57;4.57;;;;;;;22.60;49.42;99033.72;5051951;28;20039;-74
2021/09/05 06:08:34;;;;;;;6.90;4.38;;;;;;;23.01;48.31;99008.88;5052240;28;20028;-77
2021/09/05 06:10:59;;;;;;;5.57;3.95;;;;;;;22.84;47.59;99009.13;5052101;28;20025;-75
2021/09/05 06:13:25;;;;;;;7.15;4.63;;;;;;;23.10;48.42;99031.19;5033894;28;20021;-76
2021/09/05 06:15:50;;;;;;;5.47;4.05;;;;;;;23.53;47.39;99032.44;5052424;28;20031;-71
2021/09/05 06:18:15;;;;;;;5.65;4.20;;;;;;;24.06;45.71;99029.13;5052093;28;20021;-71
2021/09/05 06:20:41;;;;;;;9.40;4.85;;;;;;;23.44;46.98;99013.97;5050546;28;20020;-71
2021/09/05 06:23:06;;;;;;;7.75;5.15;;;;;;;24.09;46.49;99023.03;5051590;28;20044;-69
2021/09/05 06:25:31;;;;;;;10.35;4.90;;;;;;;24.44;45.58;99029.41;5051986;28;20025;-72
2021/09/05 06:27:57;;;;;;;7.28;4.80;;;;;;;24.68;45.51;99037.78;5051169;28;20040;-70
2021/09/05 06:30:22;;;;;;;9.90;4.57;;;;;;;25.41;43.96;99027.66;5049733;28;20467;-70
2021/09/05 06:32:47;;;;;;;8.27;5.38;;;;;;;25.59;44.42;99036.00;5045225;28;20029;-70
2021/09/05 06:35:13;;;;;;;9.23;4.43;;;;;;;25.70;43.83;99031.16;5058061;23;20143;-70
2021/09/05 06:37:38;;;;;;;8.57;4.25;;;;;;;25.78;42.95;99033.28;5063265;28;20051;-70
2021/09/05 06:40:05;;;;;;;8.13;4.07;;;;;;;26.49;42.87;99038.91;5058888;28;20386;-73
2021/09/05 06:42:30;;;;;;;6.45;4.18;;;;;;;26.92;41.26;99032.38;5059395;28;20025;-74
2021/09/05 06:44:56;;;;;;;6.70;4.32;;;;;;;27.25;40.65;99035.94;5069241;28;20119;-69
2021/09/05 06:47:21;;;;;;;8.45;4.68;;;;;;;27.68;40.28;99044.75;5049987;28;20025;-70
2021/09/05 06:49:46;;;;;;;10.95;4.50;;;;;;;28.49;38.21;99032.13;5049786;28;20037;-69
2021/09/05 06:52:12;;;;;;;5.93;3.85;;;;;;;29.14;37.05;99036.31;5047530;28;20583;-72
2021/09/05 06:54:37;;;;;;;7.10;4.28;;;;;;;30.33;35.27;99030.53;5036262;28;20027;-71
2021/09/05 06:57:04;;;;;;;6.88;5.05;;;;;;;30.53;35.14;99045.00;5039406;28;20033;-70
2021/09/05 06:59:29;;;;;;;6.65;4.03;;;;;;;30.55;34.67;99039.91;5043826;28;20033;-72
2021/09/05 07:01:55;;;;;;;5.90;4.47;;;;;;;29.77;35.63;99043.44;5038737;28;20021;-70
2021/09/05 07:04:20;;;;;;;5.45;4.45;;;;;;;29.20;36.76;99055.34;5040045;28;20030;-70
2021/09/05 07:06:46;;;;;;;6.43;4.57;;;;;;;30.66;34.65;99046.78;5041771;28;20021;-74
2021/09/05 07:09:11;;;;;;;5.93;4.57;;;;;;;31.76;33.22;99033.09;5045404;28;20024;-74
2021/09/05 07:11:37;;;;;;;7.28;4.55;;;;;;;32.19;32.35;99036.78;5049570;28;20066;-75
2021/09/05 07:14:02;;;;;;;5.97;4.25;;;;;;;33.20;30.58;99028.06;5049605;28;20036;-74
2021/09/05 07:16:27;;;;;;;6.75;4.45;;;;;;;33.99;29.62;99039.06;5031694;28;20409;-73
2021/09/05 07:18:53;;;;;;;6.30;4.63;;;;;;;34.07;29.16;99032.53;5048370;28;20025;-74
2021/09/05 07:21:19;;;;;;;6.40;4.45;;;;;;;33.34;30.46;99034.16;5045598;28;20029;-73
2021/09/05 07:23:44;;;;;;;7.72;4.50;;;;;;;33.05;30.65;99034.34;5051792;28;20143;-78
2021/09/05 07:26:10;;;;;;;5.63;4.22;;;;;;;33.52;30.55;99033.94;5034540;28;20040;-75
2021/09/05 07:28:36;;;;;;;7.00;4.32;;;;;;;34.37;29.74;99043.41;5051469;28;20428;-74
2021/09/05 07:31:05;;;;;;;6.45;4.25;;;;;;;34.43;29.12;99047.63;5055311;28;20485;-79
2021/09/05 07:33:31;;;;;;;6.38;4.40;;;;;;;34.32;28.86;99049.28;5040672;28;20031;-71
2021/09/05 07:35:56;;;;;;;6.20;4.40;;;;;;;35.18;27.86;99054.56;5047899;28;20033;-71
2021/09/05 07:38:21;;;;;;;5.88;4.50;;;;;;;34.32;28.58;99058.53;5036792;28;20035;-71
2021/09/05 07:40:47;;;;;;;6.18;4.22;;;;;;;34.82;27.67;99042.31;5056348;28;20032;-72
2021/09/05 07:43:12;;;;;;;6.40;4.20;;;;;;;32.78;30.31;99046.97;5054076;28;20032;-73
2021/09/05 07:45:38;;;;;;;5.55;4.03;;;;;;;32.08;31.60;99042.78;5050018;28;20043;-74
2021/09/05 07:48:04;;;;;;;5.80;4.25;;;;;;;32.71;31.39;99053.16;5053843;28;20028;-73
2021/09/05 07:50:29;;;;;;;6.13;4.03;;;;;;;32.00;32.10;99048.47;5054682;28;20035;-69
2021/09/05 07:52:54;;;;;;;6.03;4.43;;;;;;;32.67;31.53;99064.25;5042796;28;20024;-70
2021/09/05 07:55:20;;;;;;;6.72;4.38;;;;;;;33.17;30.55;99054.81;5057813;28;20025;-72
2021/09/05 07:57:45;;;;;;;5.30;3.90;;;;;;;34.27;29.93;99044.75;5053133;28;20035;-71
2021/09/05 08:00:11;;;;;;;6.13;3.50;;;;;;;34.23;29.97;99066.28;5052710;28;20367;-71
2021/09/05 08:02:36;;;;;;;5.47;4.05;;;;;;;34.32;29.82;99063.34;5046923;28;20064;-69
2021/09/05 08:05:02;;;;;;;5.22;3.80;;;;;;;34.62;28.98;99061.84;5054288;28;20442;-76
2021/09/05 08:07:27;;;;;;;4.43;3.60;;;;;;;34.66;28.66;99054.34;5028471;28;20036;-75
2021/09/05 08:09:53;;;;;;;5.97;3.67;;;;;;;34.78;28.53;99059.09;5038902;28;20092;-72
2021/09/05 08:12:18;;;;;;;8.38;3.67;;;;;;;35.27;28.59;99064.47;5053808;28;20086;-72
2021/09/05 08:14:43;;;;;;;4.22;3.22;;;;;;;35.34;28.22;99061.00;5052847;28;20083;-73
2021/09/05 08:17:08;;;;;;;5.32;4.35;;;;;;;34.08;29.77;99067.84;5034082;28;20094;-74
2021/09/05 08:19:34;;;;;;;5.60;3.55;;;;;;;34.70;29.45;99062.88;5053169;28;20047;-73
2021/09/05 08:21:59;;;;;;;6.03;3.92;;;;;;;34.66;29.33;99068.41;5055249;28;20054;-74
2021/09/05 08:24:24;;;;;;;5.53;3.92;;;;;;;34.08;30.02;99067.84;5054085;28;20051;-74
2021/09/05 08:26:50;;;;;;;4.05;3.20;;;;;;;34.00;29.75;99061.16;5053432;28;20111;-76
2021/09/05 08:29:15;;;;;;;5.55;3.60;;;;;;;34.31;29.62;99067.31;5041186;28;20446;-73
2021/09/05 08:31:41;;;;;;;5.68;3.53;;;;;;;35.40;29.29;99064.34;5048405;28;20080;-76
2021/09/05 08:34:06;;;;;;;8.32;3.70;;;;;;;35.74;28.97;99069.28;5038633;28;20059;-75
2021/09/05 08:36:32;;;;;;;5.00;3.35;;;;;;;35.41;29.84;99061.19;5034755;28;20071;-75
2021/09/05 08:38:57;;;;;;;5.32;3.42;;;;;;;34.85;29.85;99070.53;5052987;28;20032;-74
2021/09/05 08:41:26;;;;;;;5.32;3.80;;;;;;;35.17;29.81;99064.19;5042606;28;20070;-76
2021/09/05 08:43:51;;;;;;;;;;;;;;;35.44;28.43;99071.72;5034069;28;20029;-74
2021/09/05 08:46:17;;;;;;;4.20;3.70;;;;;;;34.29;30.36;99081.72;5038960;28;19979;-72
2021/09/05 08:48:44;;;;;;;7.35;4.60;;;;;;;34.93;29.22;99060.31;5052962;28;20347;-74
2021/09/05 08:51:09;;;;;;;4.57;3.72;;;;;;;34.58;29.83;99069.34;5053803;28;20017;-75
2021/09/05 08:53:35;;;;;;;5.57;3.80;;;;;;;34.42;29.49;99071.25;5053402;28;20032;-76
2021/09/05 08:56:01;;;;;;;5.00;3.53;;;;;;;35.32;28.42;99081.06;5043279;28;20080;-76
2021/09/05 08:58:26;;;;;;;4.75;3.78;;;;;;;35.39;28.33;99071.97;5044335;28;20093;-76
2021/09/05 09:00:51;;;;;;;4.30;2.92;;;;;;;36.51;27.71;99072.63;5035848;28;20029;-75
2021/09/05 09:03:22;;;;;;;4.30;3.55;;;;;;;36.78;26.59;99073.59;5053043;28;20060;-75
2021/09/05 09:05:53;;;;;;;5.70;3.88;;;;;;;35.52;28.17;99079.16;5052850;28;20421;-76
2021/09/05 09:08:20;;;;;;;7.35;3.70;;;;;;;36.77;26.34;99088.91;5043911;28;20035;-75
2021/09/05 09:10:53;;;;;;;5.18;3.78;;;;;;;37.14;25.64;99083.59;5051507;28;20479;-75
2021/09/05 09:13:40;;;;;;;7.65;3.55;;;;;;;38.39;24.45;99082.00;5031249;28;20421;-74
2021/09/05 09:16:08;;;;;;;4.30;3.45;;;;;;;36.55;26.67;99073.53;5053027;28;20119;-77
2021/09/05 09:18:35;;;;;;;3.92;3.00;;;;;;;36.15;26.70;99074.66;5048848;28;20031;-76
2021/09/05 09:21:03;;;;;;;6.82;3.30;;;;;;;36.27;26.73;99074.53;5052383;28;20025;-74
2021/09/05 09:23:31;;;;;;;5.75;3.58;;;;;;;35.79;27.60;99093.53;5049266;28;20461;-73
2021/09/05 09:26:01;;;;;;;4.28;3.35;;;;;;;37.03;25.87;99080.56;5047843;28;20040;-74
2021/09/05 09:28:43;;;;;;;4.05;3.22;;;;;;;36.88;26.04;99083.47;5049719;28;20028;-74
2021/09/05 09:31:18;;;;;;;4.57;3.45;;;;;;;34.89;28.79;99084.69;5034086;28;20041;-74
2021/09/05 09:33:47;;;;;;;5.20;3.65;;;;;;;35.85;27.40;99094.88;5052347;28;20028;-76
2021/09/05 09:36:15;;;;;;;4.20;3.13;;;;;;;37.43;26.01;99093.38;5051734;28;20398;-76
2021/09/05 09:39:14;;;;;;;4.23;3.17;;;;;;;37.67;26.18;99091.38;5051930;28;20108;-76
2021/09/05 09:41:41;;;;;;;6.93;3.75;;;;;;;37.74;25.28;99088.69;4993175;28;20271;-75
2021/09/05 09:44:08;;;;;;;6.65;3.03;;;;;;;38.78;25.15;99078.88;5051927;28;20028;-76
2021/09/05 09:46:36;;;;;;;4.60;3.40;;;;;;;38.08;24.45;99089.66;5051718;28;20047;-75
2021/09/05 09:49:05;;;;;;;4.25;3.33;;;;;;;38.46;25.24;99081.28;5051924;28;20502;-75
2021/09/05 09:51:31;;;;;;;3.65;2.85;;;;;;;39.13;23.87;99086.16;5051079;28;20024;-76
2021/09/05 09:53:56;;;;;;;5.35;3.78;;;;;;;38.94;23.62;99079.50;5051668;28;20512;-76
2021/09/05 09:56:22;;;;;;;3.83;3.17;;;;;;;38.94;23.67;99082.31;5052089;28;20068;-76
2021/09/05 09:58:50;;;;;;;4.55;3.10;;;;;;;39.41;23.16;99069.47;5050583;28;20103;-76
2021/09/05 10:01:18;;;;;;;3.60;2.97;;;;;;;37.68;24.61;99078.91;5052868;28;20433;-75
2021/09/05 10:03:46;;;;;;;;;;;;;;;35.51;27.64;99051.38;5052543;28;20028;-76
2021/09/05 10:06:13;;;;;;;4.03;3.20;;;;;;;38.51;24.30;99072.47;5051519;28;20009;-76
2021/09/05 10:08:48;;;;;;;3.35;3.00;;;;;;;39.44;23.66;99054.53;5051750;28;20025;-75
2021/09/05 10:11:19;;;;;;;3.67;3.28;;;;;;;39.44;23.82;99057.34;5052933;28;20025;-76
2021/09/05 10:13:45;;;;;;;4.68;3.08;;;;;;;39.20;22.63;99052.28;5050930;28;20409;-76
2021/09/05 10:16:11;;;;;;;6.90;3.20;;;;;;;39.63;21.33;99047.00;5052142;28;20029;-76
2021/09/05 10:18:49;;;;;;;3.85;3.03;;;;;;;40.00;20.95;99052.53;5054293;28;20059;-75
2021/09/05 10:21:18;;;;;;;4.75;2.95;;;;;;;38.40;21.93;99052.53;5055935;28;20029;-76
2021/09/05 10:23:53;;;;;;;5.47;2.78;;;;;;;38.20;22.38;99046.22;5051520;28;20029;-76
2021/09/05 10:26:20;;;;;;;6.90;2.95;;;;;;;37.24;23.63;99051.94;5052546;28;20025;-77
2021/09/05 10:28:50;;;;;;;4.78;3.28;;;;;;;36.97;23.99;99047.38;5053569;28;20065;-77
2021/09/05 10:31:26;;;;;;;3.75;2.92;;;;;;;37.99;23.36;99046.75;5030775;28;20551;-75
2021/09/05 10:33:53;;;;;;;3.70;3.03;;;;;;;38.31;23.94;99037.88;5046198;28;20068;-76
2021/09/05 10:36:22;;;;;;;4.05;2.78;;;;;;;38.66;22.32;99037.53;5047401;28;20036;-75
2021/09/05 10:38:49;;;;;;;3.33;2.90;;;;;;;40.21;21.60;99039.69;5062661;28;20028;-75
2021/09/05 10:41:24;;;;;;;4.13;2.90;;;;;;;38.96;22.25;99031.84;5053370;28;20040;-76
2021/09/05 10:43:59;;;;;;;3.72;2.70;;;;;;;38.46;22.75;99048.19;5047618;28;20581;-75
2021/09/05 10:46:37;;;;;;;3.88;2.83;;;;;;;39.05;21.67;99034.31;5047564;28;20127;-75
2021/09/05 10:49:05;;;;;;;6.85;2.70;;;;;;;38.35;22.40;99035.91;5047780;28;20028;-75
2021/09/05 10:51:33;;;;;;;5.10;2.43;;;;;;;39.30;20.89;99039.41;5029232;28;20442;-73
2021/09/05 10:54:10;;;;;;;5.25;2.95;;;;;;;38.21;20.00;99047.03;5040585;28;20430;-75
2021/09/05 10:56:45;;;;;;;3.72;2.53;;;;;;;39.04;17.95;99043.19;5032968;28;20021;-75
2021/09/05 10:59:19;;;;;;;3.58;3.10;;;;;;;38.58;19.14;99045.09;5048891;28;20486;-74
2021/09/05 11:01:47;;;;;;;4.93;3.00;;;;;;;37.09;20.17;99044.41;5048339;28;20037;-75
2021/09/05 11:04:13;;;;;;;3.17;2.65;;;;;;;37.78;22.15;99037.91;5049891;28;20052;-74
2021/09/05 11:06:40;;;;;;;5.32;2.70;;;;;;;38.27;20.83;99032.16;5052365;28;20471;-74
2021/09/05 11:09:18;;;;;;;3.85;2.67;;;;;;;38.75;20.30;99037.19;5033087;28;20626;-74
2021/09/05 11:12:11;;;;;;;7.53;2.78;;;;;;;37.82;21.30;99041.59;5051285;28;20560;-75
2021/09/05 11:17:07;;;;;;;3.90;2.67;;;;;;;36.97;21.43;99039.75;5045618;28;20522;-71
2021/09/05 11:19:41;;;;;;;5.03;2.65;;;;;;;36.59;22.12;99034.97;5050721;28;20035;-76
2021/09/05 11:22:07;;;;;;;3.60;2.50;;;;;;;36.05;20.89;99027.31;5050409;28;20031;-74
2021/09/05 11:24:32;;;;;;;4.13;2.90;;;;;;;36.53;20.17;99037.25;5036804;28;20029;-75
2021/09/05 11:27:02;;;;;;;5.00;2.35;;;;;;;35.85;21.29;99040.56;5039040;28;20026;-76
2021/09/05 11:29:28;;;;;;;4.80;3.45;;;;;;;36.37;21.34;99031.69;5051802;28;20032;-75
2021/09/05 11:32:05;;;;;;;4.20;2.90;;;;;;;36.99;20.19;99025.25;5032956;28;20533;-76